Time;durP1;ratioP1;P1;durP2;ratioP2;P2;SDS_P1;SDS_P2;PMS_P1;PMS_P2;Temp;Humidity;BMP_temperature;BMP_pressure;BME280_temperature;BME280_humidity;BME280_pressure;Samples;Min_cycle;Max_cycle;Signal;HPM_P1;HPM_P2
2023/04/12 00:02:22;;;;;;;13.20;6.38;;;;;;;10.47;100.00;96422.34;5036427;28;20028;-76
2023/04/12 00:04:54;;;;;;;9.38;4.57;;;;;;;10.43;100.00;96412.88;5070755;28;20028;-76
2023/04/12 00:07:22;;;;;;;11.50;6.30;;;;;;;10.39;100.00;96417.63;5070710;28;20162;-76
2023/04/12 00:09:47;;;;;;;13.27;6.70;;;;;;;10.40;100.00;96421.97;5036004;28;20032;-76
2023/04/12 00:12:13;;;;;;;10.75;6.70;;;;;;;10.43;100.00;96428.91;5052709;28;20035;-76
2023/04/12 00:14:38;;;;;;;12.77;6.65;;;;;;;10.33;100.00;96424.31;5036444;28;20035;-76
2023/04/12 00:17:04;;;;;;;15.93;7.50;;;;;;;10.45;100.00;96421.63;5036176;28;20028;-75
2023/04/12 00:19:29;;;;;;;13.27;8.00;;;;;;;10.41;100.00;96420.16;5036128;28;20028;-75
2023/04/12 00:21:55;;;;;;;10.05;5.00;;;;;;;10.65;100.00;96397.66;5035962;28;20024;-75
2023/04/12 00:24:21;;;;;;;18.25;7.07;;;;;;;10.59;100.00;96402.66;5052658;28;20439;-76
2023/04/12 00:26:47;;;;;;;15.63;7.10;;;;;;;10.57;100.00;96404.59;5052570;28;20033;-76
2023/04/12 00:29:12;;;;;;;14.40;6.45;;;;;;;10.55;100.00;96401.22;5052433;28;20025;-76
2023/04/12 00:31:38;;;;;;;16.70;7.60;;;;;;;10.54;100.00;96410.19;5032754;28;20040;-76
2023/04/12 00:34:03;;;;;;;16.55;7.00;;;;;;;10.43;100.00;96395.00;5033622;28;20021;-75
2023/04/12 00:36:29;;;;;;;11.13;6.03;;;;;;;10.46;100.00;96399.28;5052769;28;20606;-76
2023/04/12 00:38:55;;;;;;;10.10;6.15;;;;;;;10.48;100.00;96405.34;5070314;28;20036;-75
2023/04/12 00:41:23;;;;;;;13.45;6.40;;;;;;;10.50;100.00;96404.25;5034309;28;20033;-76
2023/04/12 00:43:48;;;;;;;10.15;5.25;;;;;;;10.53;100.00;96408.47;5063677;28;20040;-76
2023/04/12 00:46:16;;;;;;;13.32;5.38;;;;;;;10.53;100.00;96401.31;5072514;28;20035;-76
2023/04/12 00:48:42;;;;;;;9.73;5.00;;;;;;;10.52;100.00;96398.78;5072915;28;20028;-76
2023/04/12 00:51:08;;;;;;;12.68;6.63;;;;;;;10.53;100.00;96398.66;5072500;28;20028;-76
2023/04/12 00:53:34;;;;;;;17.17;6.95;;;;;;;10.59;100.00;96405.31;5058452;28;20380;-75
2023/04/12 00:56:00;;;;;;;13.43;6.47;;;;;;;10.60;100.00;96405.22;5057157;28;20414;-76
2023/04/12 00:58:26;;;;;;;14.23;6.25;;;;;;;10.61;100.00;96406.88;5058249;28;20036;-76
2023/04/12 01:00:54;;;;;;;10.30;5.28;;;;;;;10.66;100.00;96393.16;5056334;28;20032;-77
2023/04/12 01:03:23;;;;;;;8.75;5.03;;;;;;;10.73;100.00;96405.06;5091631;28;20036;-76
2023/04/12 01:06:08;;;;;;;9.88;5.32;;;;;;;10.77;100.00;96402.00;5059824;28;20109;-75
2023/04/12 01:08:39;;;;;;;8.88;4.82;;;;;;;10.84;100.00;96402.38;5094334;28;20093;-76
2023/04/12 01:11:35;;;;;;;7.93;5.10;;;;;;;10.86;100.00;96382.53;5057604;28;20024;-76
2023/04/12 01:14:04;;;;;;;6.50;4.30;;;;;;;10.95;100.00;96388.94;5042138;28;20499;-75
2023/04/12 01:16:32;;;;;;;6.45;4.22;;;;;;;11.00;99.98;96381.41;5075953;28;20028;-75
2023/04/12 01:19:02;;;;;;;10.43;4.15;;;;;;;11.04;98.36;96365.97;5075864;28;20024;-75
2023/04/12 01:21:48;;;;;;;6.32;4.00;;;;;;;11.12;97.00;96366.16;5076109;28;20028;-75
2023/04/12 01:24:52;;;;;;;10.57;4.20;;;;;;;11.10;100.00;96376.16;5059017;28;20089;-76
2023/04/12 01:27:53;;;;;;;5.43;3.90;;;;;;;11.08;97.15;96370.91;5074966;28;20040;-76
2023/04/12 01:30:20;;;;;;;7.85;4.35;;;;;;;11.00;96.44;96369.88;5058712;28;20040;-77
2023/04/12 01:32:50;;;;;;;8.95;5.07;;;;;;;10.93;98.47;96363.31;5070279;28;20020;-76
2023/04/12 01:35:17;;;;;;;13.10;5.63;;;;;;;10.86;99.14;96368.31;5075742;28;20020;-76
2023/04/12 01:37:42;;;;;;;8.85;4.93;;;;;;;10.76;99.05;96354.00;5059092;28;20020;-76
2023/04/12 01:40:09;;;;;;;10.90;5.03;;;;;;;10.73;100.00;96367.63;5075589;28;20027;-77
2023/04/12 01:42:34;;;;;;;7.60;5.30;;;;;;;10.68;100.00;96370.66;5074855;28;20034;-77
2023/04/12 01:45:01;;;;;;;9.40;5.82;;;;;;;10.69;100.00;96368.84;5038995;28;20131;-77
2023/04/12 01:47:27;;;;;;;14.55;5.55;;;;;;;10.66;100.00;96361.06;5055241;28;20028;-77
2023/04/12 01:50:12;;;;;;;12.40;5.20;;;;;;;10.68;100.00;96359.97;5038885;28;20086;-77
2023/04/12 01:52:43;;;;;;;16.65;5.80;;;;;;;10.70;100.00;96354.50;5038687;28;20028;-77
2023/04/12 01:55:11;;;;;;;13.10;6.40;;;;;;;10.74;100.00;96356.78;5038612;28;20028;-78
2023/04/12 01:57:37;;;;;;;20.05;5.60;;;;;;;10.70;100.00;96351.84;5038713;28;20071;-76
2023/04/12 02:00:06;;;;;;;8.73;5.93;;;;;;;10.73;100.00;96362.28;5055366;28;20020;-76
2023/04/12 02:02:34;;;;;;;9.80;5.97;;;;;;;10.71;100.00;96367.75;5052835;28;20032;-76
2023/04/12 02:05:00;;;;;;;11.38;5.53;;;;;;;10.76;100.00;96364.72;5035440;28;20035;-76
2023/04/12 02:07:26;;;;;;;10.15;5.90;;;;;;;10.84;98.82;96351.53;5054033;28;20381;-76
2023/04/12 02:09:52;;;;;;;7.10;5.13;;;;;;;10.88;97.83;96353.84;5038205;28;20043;-77
2023/04/12 02:12:17;;;;;;;10.23;5.85;;;;;;;10.90;99.07;96364.41;5036058;28;20040;-76
2023/04/12 02:14:43;;;;;;;10.48;5.60;;;;;;;10.98;99.21;96361.97;5038457;28;20028;-76
2023/04/12 02:17:12;;;;;;;11.95;5.68;;;;;;;11.06;95.15;96354.16;5038390;28;20047;-76
2023/04/12 02:19:37;;;;;;;9.50;5.75;;;;;;;11.12;95.19;96356.31;5038466;28;20106;-77
2023/04/12 02:22:04;;;;;;;10.85;5.68;;;;;;;11.14;95.19;96349.00;5055057;28;20502;-77
2023/04/12 02:24:30;;;;;;;8.93;6.05;;;;;;;11.20;96.11;96353.00;5054624;28;20111;-77
2023/04/12 02:26:57;;;;;;;10.63;6.15;;;;;;;11.20;96.74;96353.00;5072497;28;20123;-77
2023/04/12 02:29:23;;;;;;;9.70;5.70;;;;;;;11.24;95.80;96357.97;5054539;28;20399;-76
2023/04/12 02:31:50;;;;;;;11.35;6.50;;;;;;;11.25;95.35;96348.97;5038055;28;20025;-77
2023/04/12 02:34:16;;;;;;;15.50;6.30;;;;;;;11.29;95.61;96358.44;5038027;28;20024;-76
2023/04/12 02:36:48;;;;;;;13.13;6.50;;;;;;;11.26;95.44;96353.34;5054863;28;20025;-76
2023/04/12 02:39:17;;;;;;;13.57;6.57;;;;;;;11.26;94.87;96347.97;5037853;28;20032;-76
2023/04/12 02:41:44;;;;;;;11.68;6.30;;;;;;;11.26;94.26;96350.66;5055137;28;20021;-77
2023/04/12 02:44:09;;;;;;;13.88;6.53;;;;;;;11.24;96.84;96349.94;5064517;28;20068;-77
2023/04/12 02:46:35;;;;;;;9.00;6.05;;;;;;;11.22;96.26;96354.59;5070828;28;20122;-77
2023/04/12 02:49:00;;;;;;;12.73;7.13;;;;;;;11.21;95.97;96347.53;5070994;28;20029;-77
2023/04/12 02:51:26;;;;;;;10.65;6.82;;;;;;;11.24;95.16;96341.91;5070858;28;20028;-77
2023/04/12 02:53:52;;;;;;;16.90;7.05;;;;;;;11.28;97.15;96356.75;5053140;28;20105;-78
2023/04/12 02:56:44;;;;;;;17.77;8.38;;;;;;;11.28;97.53;96359.44;5054064;28;20028;-78
2023/04/12 02:59:53;;;;;;;24.10;12.07;;;;;;;11.01;98.80;96334.97;5063650;28;20472;-79
2023/04/12 03:09:45;;;;;;;19.27;9.50;;;;;;;10.39;100.00;96300.00;5000118;28;20025;-78
2023/04/12 03:12:34;;;;;;;20.02;11.32;;;;;;;10.30;100.00;96322.13;4968632;28;20034;-78
2023/04/12 03:18:22;;;;;;;33.17;15.25;;;;;;;10.11;100.00;96327.22;4994398;28;20048;-78
2023/04/12 03:21:02;;;;;;;32.03;12.63;;;;;;;10.13;100.00;96328.81;5009819;28;20445;-78
2023/04/12 03:24:07;;;;;;;33.30;15.15;;;;;;;9.95;100.00;96310.69;5009491;28;20042;-78
2023/04/12 03:26:33;;;;;;;35.95;17.35;;;;;;;10.02;100.00;96333.28;5004966;28;20045;-78
2023/04/12 03:29:00;;;;;;;38.72;17.45;;;;;;;10.15;100.00;96377.63;4993145;28;20044;-77
2023/04/12 03:31:26;;;;;;;34.65;15.10;;;;;;;10.05;100.00;96373.97;4977034;28;20038;-78
2023/04/12 03:33:52;;;;;;;29.08;14.02;;;;;;;10.04;100.00;96364.25;4993030;28;20068;-78
2023/04/12 03:36:21;;;;;;;24.42;11.38;;;;;;;10.14;100.00;96359.91;4984316;28;20094;-77
2023/04/12 03:38:47;;;;;;;23.35;10.40;;;;;;;10.30;100.00;96359.56;4979472;28;20033;-77
2023/04/12 03:41:12;;;;;;;22.52;11.65;;;;;;;10.42;100.00;96365.72;4988392;28;20068;-77
2023/04/12 03:43:38;;;;;;;26.90;13.13;;;;;;;10.41;100.00;96380.06;5011982;28;20558;-78
2023/04/12 03:46:04;;;;;;;25.45;12.40;;;;;;;10.43;100.00;96370.94;5023568;28;20036;-77
2023/04/12 03:48:30;;;;;;;32.17;14.18;;;;;;;10.50;100.00;96366.81;5043847;28;20063;-77
2023/04/12 03:50:58;;;;;;;38.55;18.83;;;;;;;10.58;100.00;96375.03;5055199;28;20063;-78
2023/04/12 03:53:25;;;;;;;46.00;20.80;;;;;;;10.66;100.00;96382.47;5053587;28;20028;-76
2023/04/12 03:55:51;;;;;;;34.28;16.83;;;;;;;10.63;100.00;96388.06;5089107;28;20038;-80
2023/04/12 03:58:18;;;;;;;55.88;25.52;;;;;;;10.62;100.00;96392.56;5056427;28;20399;-79
2023/04/12 04:00:45;;;;;;;41.28;21.65;;;;;;;10.64;100.00;96384.44;5053315;28;20020;-78
2023/04/12 04:03:10;;;;;;;33.83;17.05;;;;;;;10.68;100.00;96384.03;5055462;28;20115;-80
2023/04/12 04:05:36;;;;;;;51.75;21.10;;;;;;;10.63;100.00;96377.38;5053003;28;20117;-78
2023/04/12 04:08:01;;;;;;;40.17;19.65;;;;;;;10.70;100.00;96383.94;5072001;28;20058;-78
2023/04/12 04:10:27;;;;;;;31.48;16.35;;;;;;;10.70;100.00;96378.59;5073235;28;20031;-80
2023/04/12 04:12:53;;;;;;;50.35;24.25;;;;;;;10.77;100.00;96379.75;5055929;28;20032;-80
2023/04/12 04:15:19;;;;;;;42.60;18.77;;;;;;;10.80;100.00;96385.72;5073060;28;20081;-80
2023/04/12 04:17:47;;;;;;;31.23;14.65;;;;;;;10.82;100.00;96380.25;5052761;28;20024;-80
2023/04/12 04:20:13;;;;;;;20.38;10.32;;;;;;;10.91;100.00;96398.22;5055128;28;20407;-80
2023/04/12 04:22:38;;;;;;;16.85;9.52;;;;;;;10.89;100.00;96384.09;5052825;28;20036;-77
2023/04/12 04:25:04;;;;;;;21.13;10.82;;;;;;;10.97;100.00;96391.53;5055079;28;20085;-81
2023/04/12 04:27:33;;;;;;;18.02;9.63;;;;;;;11.04;100.00;96398.06;5057337;28;20517;-84
2023/04/12 04:30:01;;;;;;;20.30;11.05;;;;;;;11.13;100.00;96389.28;5078509;28;20038;-80
2023/04/12 04:32:27;;;;;;;33.50;17.58;;;;;;;11.25;100.00;96391.81;5078396;28;20038;-78
2023/04/12 04:35:00;;;;;;;19.98;10.43;;;;;;;11.34;100.00;96396.38;5073116;28;20103;-75
2023/04/12 04:37:26;;;;;;;;;;;;;;;11.51;96.17;96400.31;5058255;28;20041;-74
2023/04/12 04:39:52;;;;;;;14.07;7.13;;;;;;;11.58;95.75;96406.00;5078405;28;20333;-74
2023/04/12 04:42:17;;;;;;;10.43;4.30;;;;;;;11.76;84.39;96388.41;5076847;28;20062;-75
2023/04/12 04:44:43;;;;;;;7.80;4.45;;;;;;;11.92;77.91;96365.53;5076248;28;20464;-74
2023/04/12 04:47:09;;;;;;;8.20;4.70;;;;;;;11.91;77.75;96369.19;5059349;28;20403;-75
2023/04/12 04:49:36;;;;;;;8.68;4.85;;;;;;;12.06;80.76;96377.72;5076534;28;20115;-75
2023/04/12 04:52:01;;;;;;;7.28;5.00;;;;;;;12.03;74.41;96361.91;5076524;28;20043;-75
2023/04/12 04:54:27;;;;;;;6.13;3.88;;;;;;;12.09;73.98;96364.06;5094155;28;20398;-75
2023/04/12 04:56:52;;;;;;;7.35;4.10;;;;;;;12.23;73.94;96378.97;5059374;28;20465;-75
2023/04/12 04:59:18;;;;;;;8.02;3.55;;;;;;;12.31;74.50;96382.66;5076042;28;20104;-75
2023/04/12 05:03:50;;;;;;;6.47;3.53;;;;;;;12.41;72.63;96377.34;5125950;27;20124;-74
2023/04/12 05:06:16;;;;;;;8.60;2.80;;;;;;;12.44;64.01;96366.34;5125763;28;20031;-75
2023/04/12 05:08:41;;;;;;;3.15;2.08;;;;;;;12.47;59.51;96345.47;5127964;27;20031;-74
2023/04/12 05:11:07;;;;;;;4.00;2.28;;;;;;;12.61;57.52;96355.00;5129168;27;20494;-74
2023/04/12 05:13:32;;;;;;;3.65;1.92;;;;;;;12.66;56.97;96354.56;5129027;27;20019;-75
2023/04/12 05:15:58;;;;;;;3.33;2.25;;;;;;;12.78;56.78;96356.16;5129198;27;20405;-74
2023/04/12 05:18:23;;;;;;;2.78;1.90;;;;;;;12.92;55.59;96361.13;5127471;28;20028;-75
2023/04/12 05:20:49;;;;;;;4.57;1.63;;;;;;;12.95;54.88;96355.50;5123324;27;20030;-75
2023/04/12 05:23:15;;;;;;;5.28;2.30;;;;;;;12.91;53.21;96337.97;5124674;28;20118;-76
2023/04/12 05:25:45;;;;;;;3.97;1.70;;;;;;;12.82;52.30;96347.69;5127696;27;20043;-76
2023/04/12 05:28:12;;;;;;;3.25;1.77;;;;;;;12.98;53.80;96371.31;5110168;27;20482;-75
2023/04/12 05:30:39;;;;;;;8.95;3.97;;;;;;;12.94;56.39;96377.94;5110317;28;20027;-75
2023/04/12 05:33:05;;;;;;;8.13;4.22;;;;;;;12.90;60.76;96400.66;5128770;27;20027;-73
2023/04/12 05:35:30;;;;;;;4.65;2.22;;;;;;;12.72;58.17;96397.78;5128523;27;20422;-74
2023/04/12 05:37:56;;;;;;;2.92;1.85;;;;;;;12.60;56.99;96381.94;5127908;28;20422;-86
2023/04/12 05:40:21;;;;;;;18.85;8.65;;;;;;;12.66;60.21;96402.84;5110895;27;20114;-86
2023/04/12 05:42:47;;;;;;;11.60;2.85;;;;;;;12.73;60.17;96410.25;5123129;28;20032;-85
2023/04/12 05:45:12;;;;;;;3.35;2.10;;;;;;;12.63;59.63;96403.97;5107562;28;20551;-87
2023/04/12 05:47:38;;;;;;;4.00;2.40;;;;;;;12.67;59.63;96393.81;5111321;28;20045;-86
2023/04/12 05:50:05;;;;;;;3.17;2.15;;;;;;;12.74;57.99;96387.75;5113854;27;20028;-87
2023/04/12 05:52:31;;;;;;;7.47;2.60;;;;;;;12.74;57.24;96378.84;5107803;28;20432;-87
2023/04/12 05:54:56;;;;;;;8.57;4.57;;;;;;;12.59;58.05;96369.50;5104659;28;20126;-75
2023/04/12 05:57:22;;;;;;;4.43;2.05;;;;;;;12.75;56.38;96376.06;5125695;28;20051;-74
2023/04/12 05:59:47;;;;;;;9.25;3.40;;;;;;;13.07;57.69;96375.00;5106558;28;20450;-74
2023/04/12 06:02:13;;;;;;;5.53;2.40;;;;;;;13.27;55.41;96372.22;5106204;28;20046;-75
2023/04/12 06:04:39;;;;;;;6.85;3.65;;;;;;;13.41;55.90;96374.47;5106388;28;20031;-75
2023/04/12 06:07:05;;;;;;;7.38;2.58;;;;;;;13.59;55.26;96374.63;5107666;27;20048;-75
2023/04/12 06:09:31;;;;;;;5.68;2.80;;;;;;;13.82;55.28;96369.78;5106015;28;20111;-77
2023/04/12 06:11:56;;;;;;;5.35;2.60;;;;;;;13.96;54.40;96375.59;5095893;27;20026;-75
2023/04/12 06:14:22;;;;;;;5.88;3.15;;;;;;;13.75;53.68;96355.25;5119664;27;20479;-81
2023/04/12 06:16:48;;;;;;;14.07;4.07;;;;;;;13.93;54.10;96365.13;5088240;28;20028;-82
2023/04/12 06:19:13;;;;;;;9.95;5.15;;;;;;;14.43;53.52;96367.53;5088786;28;20067;-82
2023/04/12 06:21:39;;;;;;;5.85;2.55;;;;;;;14.69;51.80;96357.78;5076121;28;20059;-84
2023/04/12 06:24:05;;;;;;;30.77;18.63;;;;;;;14.86;52.86;96373.13;5108231;28;20027;-80
2023/04/12 06:26:31;;;;;;;5.57;3.67;;;;;;;14.93;51.46;96350.00;5094577;28;20101;-80
2023/04/12 06:28:56;;;;;;;41.65;24.50;;;;;;;15.00;52.48;96355.63;5102221;28;20031;-81
2023/04/12 06:31:22;;;;;;;20.65;11.45;;;;;;;15.07;52.06;96341.41;5102032;28;20028;-80
2023/04/12 06:33:49;;;;;;;16.13;8.60;;;;;;;15.07;51.27;96346.78;5093991;28;20028;-75
2023/04/12 06:36:15;;;;;;;10.93;4.47;;;;;;;15.00;51.46;96334.94;5091679;28;20087;-75
2023/04/12 06:38:41;;;;;;;5.20;3.45;;;;;;;14.94;50.56;96315.84;5095970;28;20027;-78
2023/04/12 06:41:06;;;;;;;4.07;2.50;;;;;;;14.67;51.12;96307.81;5104408;28;20030;-76
2023/04/12 06:43:32;;;;;;;4.13;2.30;;;;;;;14.76;51.81;96313.16;5102727;28;20035;-76
2023/04/12 06:45:57;;;;;;;5.57;3.90;;;;;;;14.52;52.39;96313.69;5106004;28;20505;-76
2023/04/12 06:48:23;;;;;;;7.63;3.65;;;;;;;14.68;53.54;96333.72;5086758;28;20028;-77
2023/04/12 06:50:48;;;;;;;4.25;2.80;;;;;;;14.50;52.59;96315.69;5104174;28;20027;-76
2023/04/12 06:53:14;;;;;;;7.90;3.90;;;;;;;14.57;54.61;96326.69;5105291;28;20093;-77
2023/04/12 06:55:40;;;;;;;52.15;28.98;;;;;;;14.56;53.62;96325.84;5093272;28;20035;-77
2023/04/12 06:58:05;;;;;;;5.07;3.42;;;;;;;14.42;52.34;96312.91;5091987;28;20028;-76
2023/04/12 07:00:31;;;;;;;6.60;2.42;;;;;;;14.31;51.31;96293.34;5100822;28;20028;-76
2023/04/12 07:02:56;;;;;;;4.68;3.05;;;;;;;14.27;50.44;96286.59;5094836;28;20486;-73
2023/04/12 07:05:22;;;;;;;8.35;4.85;;;;;;;14.30;51.18;96291.69;5113198;28;20039;-79
2023/04/12 07:07:47;;;;;;;16.67;5.03;;;;;;;14.44;54.04;96316.28;5095098;28;20027;-74
2023/04/12 07:10:13;;;;;;;15.05;7.32;;;;;;;14.59;55.18;96322.84;5111839;28;20034;-72
2023/04/12 07:12:39;;;;;;;9.32;5.20;;;;;;;14.84;55.45;96310.53;5111588;28;20031;-71
2023/04/12 07:15:05;;;;;;;8.98;4.90;;;;;;;14.98;54.21;96309.19;5112301;28;20161;-77
2023/04/12 07:17:30;;;;;;;3.10;2.38;;;;;;;15.10;50.83;96302.56;5103807;28;20398;-78
2023/04/12 07:19:56;;;;;;;10.75;4.00;;;;;;;15.28;50.49;96298.03;5103775;28;20018;-80
2023/04/12 07:22:22;;;;;;;4.95;3.20;;;;;;;15.56;52.23;96309.59;5104528;28;20449;-80
2023/04/12 07:24:50;;;;;;;11.07;3.70;;;;;;;15.76;50.19;96300.28;5094242;28;20475;-78
2023/04/12 07:27:15;;;;;;;4.45;2.08;;;;;;;15.69;49.39;96281.19;5079446;28;20035;-77
2023/04/12 07:29:41;;;;;;;4.95;2.22;;;;;;;15.92;49.06;96289.63;5110340;28;20456;-77
2023/04/12 07:32:07;;;;;;;3.65;2.10;;;;;;;15.90;48.79;96269.22;5086609;28;20023;-78
2023/04/12 07:34:33;;;;;;;3.97;2.30;;;;;;;16.28;49.08;96284.94;5086080;28;20476;-77
2023/04/12 07:36:59;;;;;;;4.63;2.58;;;;;;;16.33;48.70;96273.69;5093079;28;20034;-78
2023/04/12 07:39:25;;;;;;;5.43;2.10;;;;;;;16.78;48.69;96285.88;5091510;28;20032;-79
2023/04/12 07:41:51;;;;;;;2.38;1.73;;;;;;;17.44;46.11;96284.97;5107851;28;20506;-78
2023/04/12 07:44:17;;;;;;;6.85;1.50;;;;;;;18.28;44.12;96276.44;5089064;28;20034;-81
2023/04/12 07:46:42;;;;;;;27.30;17.33;;;;;;;19.23;43.55;96286.19;5094723;28;20040;-81
2023/04/12 07:49:09;;;;;;;26.38;17.35;;;;;;;20.69;43.36;96293.91;5106698;28;20453;-81
2023/04/12 07:51:35;;;;;;;18.20;10.40;;;;;;;21.84;40.91;96282.91;5101189;28;20131;-81
2023/04/12 07:54:01;;;;;;;11.63;6.97;;;;;;;22.89;38.88;96266.50;5107564;28;20081;-82
2023/04/12 07:56:26;;;;;;;4.25;2.55;;;;;;;23.11;35.72;96243.50;5090383;28;20027;-82
2023/04/12 07:58:52;;;;;;;3.97;2.75;;;;;;;23.52;35.01;96235.25;5100865;28;20051;-81
2023/04/12 08:01:17;;;;;;;5.03;3.67;;;;;;;24.00;33.34;96223.09;5098091;28;20053;-79
2023/04/12 08:03:43;;;;;;;7.90;1.80;;;;;;;23.26;34.78;96211.44;5110081;28;20035;-81
2023/04/12 08:06:08;;;;;;;2.95;2.03;;;;;;;24.13;34.74;96225.88;5099585;28;20090;-80
2023/04/12 08:08:34;;;;;;;5.35;2.38;;;;;;;24.44;34.01;96218.88;5082681;28;20026;-81
2023/04/12 08:11:01;;;;;;;7.05;3.90;;;;;;;25.41;31.92;96219.56;5107882;28;20101;-81
2023/04/12 08:13:27;;;;;;;3.25;2.60;;;;;;;25.93;32.75;96223.88;5092280;28;20107;-82
2023/04/12 08:15:52;;;;;;;7.90;3.88;;;;;;;27.44;32.15;96233.25;5092754;28;20469;-82
2023/04/12 08:18:18;;;;;;;4.65;3.05;;;;;;;27.63;30.28;96214.81;5096893;28;20024;-82
2023/04/12 08:20:44;;;;;;;5.03;3.10;;;;;;;28.57;29.15;96201.00;5073417;28;20107;-82
2023/04/12 08:23:10;;;;;;;5.93;2.70;;;;;;;27.20;27.98;96158.16;5073459;28;20118;-81
2023/04/12 08:25:36;;;;;;;6.30;2.53;;;;;;;26.93;29.46;96156.84;5081936;28;20024;-81
2023/04/12 08:28:02;;;;;;;4.00;3.45;;;;;;;28.35;29.20;96180.66;5093902;28;20897;-81
2023/04/12 08:30:28;;;;;;;4.53;3.00;;;;;;;28.66;27.99;96173.97;5110870;28;20096;-81
2023/04/12 08:32:54;;;;;;;4.70;3.05;;;;;;;29.40;27.26;96173.06;5082771;28;20024;-78
2023/04/12 08:35:21;;;;;;;3.55;2.83;;;;;;;27.65;27.12;96122.00;5090035;28;20392;-77
2023/04/12 08:37:46;;;;;;;12.07;3.78;;;;;;;27.18;29.16;96127.34;5090127;28;20020;-76
2023/04/12 08:40:12;;;;;;;6.20;3.72;;;;;;;27.44;28.83;96135.22;5110184;28;20026;-76
2023/04/12 08:42:57;;;;;;;8.75;3.85;;;;;;;28.52;27.91;96141.16;5093571;28;20518;-73
2023/04/12 08:45:24;;;;;;;4.18;3.17;;;;;;;29.38;26.41;96131.97;5072917;28;20028;-73
2023/04/12 08:47:50;;;;;;;5.50;3.30;;;;;;;29.73;25.63;96130.94;5089597;28;20032;-75
2023/04/12 08:50:16;;;;;;;5.18;2.63;;;;;;;28.60;25.46;96097.84;5072792;28;20023;-75
2023/04/12 08:52:42;;;;;;;4.45;2.80;;;;;;;28.87;25.52;96118.25;5089774;28;20024;-75
2023/04/12 08:55:08;;;;;;;4.10;2.70;;;;;;;28.40;25.65;96103.72;5090104;28;20032;-79
2023/04/12 08:57:34;;;;;;;2.50;1.80;;;;;;;25.74;25.97;96024.88;5088855;28;20024;-80
2023/04/12 09:00:01;;;;;;;1.63;1.40;;;;;;;23.27;27.43;96003.00;5106558;28;20073;-81
2023/04/12 09:02:27;;;;;;;3.28;1.52;;;;;;;22.78;27.80;96006.16;5088267;28;20043;-74
2023/04/12 09:04:53;;;;;;;3.45;1.52;;;;;;;22.50;27.92;96000.84;5086530;28;20036;-74
2023/04/12 09:07:22;;;;;;;2.60;1.33;;;;;;;22.28;28.39;96003.94;5074818;28;20482;-75
2023/04/12 09:09:48;;;;;;;5.15;1.63;;;;;;;23.15;28.40;96024.66;5108311;28;20035;-75
2023/04/12 09:12:18;;;;;;;8.88;2.65;;;;;;;24.13;26.89;96047.41;5103899;28;20371;-75
2023/04/12 09:14:44;;;;;;;4.28;2.33;;;;;;;23.16;27.43;96012.66;5107623;28;20024;-75
2023/04/12 09:17:23;;;;;;;6.00;1.70;;;;;;;23.93;27.32;96038.41;5091456;28;20031;-75
2023/04/12 09:19:49;;;;;;;7.57;2.25;;;;;;;25.51;24.90;96043.81;5069976;28;20044;-74
2023/04/12 09:22:15;;;;;;;6.38;2.40;;;;;;;24.50;24.34;95988.34;5069620;28;20047;-75
2023/04/12 09:24:48;;;;;;;2.80;1.05;;;;;;;22.61;24.76;95936.72;5074250;28;20024;-75
2023/04/12 09:27:14;;;;;;;4.25;1.70;;;;;;;24.04;24.95;95992.13;5065913;28;20111;-75
2023/04/12 09:29:40;;;;;;;3.67;2.03;;;;;;;23.92;25.00;95977.47;5069906;28;20114;-76
2023/04/12 09:32:07;;;;;;;5.93;1.95;;;;;;;23.64;26.32;95985.13;5069821;28;20465;-75
2023/04/12 09:34:34;;;;;;;3.00;1.60;;;;;;;22.62;25.39;95943.81;5086595;28;20036;-75
2023/04/12 09:37:13;;;;;;;6.80;1.70;;;;;;;21.86;26.36;95942.38;5087851;28;20036;-75
2023/04/12 09:39:38;;;;;;;3.50;1.58;;;;;;;22.15;27.30;95964.72;5106870;28;20031;-76
2023/04/12 09:42:08;;;;;;;2.58;1.67;;;;;;;22.48;26.35;95953.91;5102305;28;20376;-75
2023/04/12 09:44:33;;;;;;;1.48;1.38;;;;;;;22.39;26.18;95940.69;5087666;28;20024;-75
2023/04/12 09:47:01;;;;;;;1.48;1.27;;;;;;;21.20;26.87;95919.47;5091694;28;20058;-76
2023/04/12 09:49:43;;;;;;;3.70;1.70;;;;;;;21.68;28.29;95962.00;5082787;28;20085;-75
2023/04/12 09:52:12;;;;;;;2.55;1.60;;;;;;;22.54;28.51;95987.66;5090360;28;20099;-75
2023/04/12 09:54:42;;;;;;;6.57;1.85;;;;;;;23.47;27.66;96003.03;5073138;28;20036;-76
2023/04/12 09:57:08;;;;;;;2.55;1.80;;;;;;;22.91;26.39;95959.81;5105117;28;20023;-75
2023/04/12 09:59:43;;;;;;;2.22;1.90;;;;;;;21.95;28.78;95946.63;5093652;28;20076;-75
2023/04/12 10:02:17;;;;;;;2.05;1.65;;;;;;;21.27;28.36;95933.94;5110234;28;20069;-75
2023/04/12 10:04:43;;;;;;;2.95;2.13;;;;;;;21.39;28.75;95951.38;5093359;28;20070;-75
2023/04/12 10:07:10;;;;;;;2.92;1.83;;;;;;;21.85;27.55;95949.72;5093273;28;20465;-75
2023/04/12 10:09:40;;;;;;;3.53;2.10;;;;;;;23.67;26.06;95998.34;5109903;28;20031;-76
2023/04/12 10:12:07;;;;;;;2.40;1.50;;;;;;;23.59;24.84;95971.28;5096886;28;20037;-75
2023/04/12 10:14:32;;;;;;;6.00;1.80;;;;;;;25.23;23.19;95984.88;5098454;28;20028;-75
2023/04/12 10:17:00;;;;;;;24.55;2.42;;;;;;;26.83;22.79;96020.16;5093277;28;20024;-75
2023/04/12 10:19:27;;;;;;;8.82;1.83;;;;;;;26.86;21.01;95991.41;5093284;28;20028;-76
2023/04/12 10:21:54;;;;;;;13.15;3.13;;;;;;;27.59;21.28;96002.06;5098203;28;20037;-75
2023/04/12 10:24:24;;;;;;;7.22;1.88;;;;;;;27.73;21.39;95996.06;5072951;28;20111;-76
2023/04/12 10:26:50;;;;;;;5.25;1.60;;;;;;;28.10;21.82;96007.66;5091188;28;20380;-77
2023/04/12 10:29:30;;;;;;;1.98;1.65;;;;;;;27.47;22.31;95987.47;5104290;28;20023;-76
2023/04/12 10:31:57;;;;;;;3.17;1.13;;;;;;;27.29;22.47;95991.97;5109992;28;20139;-76
2023/04/12 10:34:27;;;;;;;2.22;1.55;;;;;;;27.43;22.36;95989.88;5102721;28;20036;-76
2023/04/12 10:37:00;;;;;;;6.03;2.20;;;;;;;27.37;23.77;95988.03;5089573;28;20877;-76
2023/04/12 10:39:43;;;;;;;3.28;1.70;;;;;;;28.00;22.13;95999.13;5088501;28;20477;-76
2023/04/12 10:42:15;;;;;;;4.55;1.70;;;;;;;28.37;22.03;95992.25;5092738;28;20457;-76
2023/04/12 10:44:40;;;;;;;6.60;1.65;;;;;;;28.25;22.80;95990.63;5109711;28;20028;-76
2023/04/12 10:47:06;;;;;;;8.32;1.98;;;;;;;25.83;23.91;95944.88;5080175;28;20137;-76
2023/04/12 10:49:33;;;;;;;8.55;1.98;;;;;;;27.06;23.51;95986.44;5097283;28;20023;-75
2023/04/12 10:52:07;;;;;;;10.30;3.28;;;;;;;28.07;22.87;95999.03;5099550;27;20108;-77
2023/04/12 10:54:34;;;;;;;3.05;1.30;;;;;;;27.71;22.83;95978.16;5090740;28;20406;-77
2023/04/12 10:57:00;;;;;;;6.65;1.05;;;;;;;27.20;23.92;95965.94;5109183;28;20035;-77
2023/04/12 10:59:54;;;;;;;7.47;1.40;;;;;;;27.51;23.13;95978.50;5103003;28;20021;-77
2023/04/12 11:02:20;;;;;;;3.85;1.70;;;;;;;27.77;22.89;95988.19;5088543;28;20117;-76
2023/04/12 11:05:18;;;;;;;4.38;1.55;;;;;;;28.43;23.40;96005.03;5074897;28;20388;-76
2023/04/12 11:07:44;;;;;;;2.63;1.40;;;;;;;28.02;23.67;95998.91;5074015;28;20044;-77
2023/04/12 11:10:18;;;;;;;8.93;2.00;;;;;;;27.82;23.71;95996.53;5071942;28;20024;-76
2023/04/12 11:12:49;;;;;;;4.38;1.80;;;;;;;27.04;23.99;95955.63;5098922;28;20482;-76
2023/04/12 11:15:15;;;;;;;3.53;1.92;;;;;;;26.90;22.87;95956.94;5109628;28;20474;-77
2023/04/12 11:17:41;;;;;;;3.05;1.08;;;;;;;26.31;23.06;95925.72;5092739;28;20089;-76
2023/04/12 11:20:11;;;;;;;4.32;1.67;;;;;;;26.50;24.99;95966.81;5071696;28;20039;-76
2023/04/12 11:22:37;;;;;;;4.78;1.70;;;;;;;26.48;24.62;95972.53;5071791;28;20093;-77
2023/04/12 11:25:03;;;;;;;4.15;1.73;;;;;;;27.93;23.55;96009.44;5097272;28;20039;-77
2023/04/12 11:27:30;;;;;;;7.57;1.90;;;;;;;28.61;23.00;96014.22;5096870;28;20080;-77
2023/04/12 11:30:00;;;;;;;2.08;1.67;;;;;;;28.15;23.24;95999.50;5109374;28;20039;-76
2023/04/12 11:32:27;;;;;;;3.47;1.65;;;;;;;27.95;23.64;95996.28;5103794;28;20028;-76
2023/04/12 11:34:55;;;;;;;3.45;1.83;;;;;;;27.53;22.85;95976.38;5090003;28;20039;-76
2023/04/12 11:37:21;;;;;;;6.53;1.63;;;;;;;29.05;22.41;96007.91;5076483;28;20034;-76
2023/04/12 11:39:49;;;;;;;5.93;1.55;;;;;;;28.81;21.98;95989.84;5100548;28;20032;-77
2023/04/12 11:42:18;;;;;;;2.30;1.40;;;;;;;27.91;22.90;95971.19;5100534;28;20084;-76
2023/04/12 11:44:44;;;;;;;3.92;1.60;;;;;;;28.09;22.97;95980.38;5108675;28;20164;-77